createdAt,value
2022-08-07T00:00:44.337Z,74.89
2022-08-07T00:02:36.550Z,74.82
2022-08-07T00:02:46.071Z,75.13
2022-08-07T00:03:47.274Z,75.13
2022-08-07T00:04:44.342Z,75.02
2022-08-07T00:05:44.292Z,74.93
2022-08-07T00:06:51.556Z,74.72
2022-08-07T00:07:45.271Z,74.82
2022-08-07T00:08:44.640Z,74.82
2022-08-07T00:09:54.171Z,75.02
2022-08-07T00:10:47.759Z,74.93
2022-08-07T00:11:54.459Z,75.23
2022-08-07T00:13:00.503Z,75.43
2022-08-07T00:13:45.211Z,75.43
2022-08-07T00:14:44.324Z,75.33
2022-08-07T00:15:46.623Z,75.33
2022-08-07T00:16:45.174Z,75.33
2022-08-07T00:17:44.169Z,75.43
2022-08-07T00:18:44.142Z,75.43
2022-08-07T00:20:01.426Z,75.33
2022-08-07T00:20:45.123Z,75.23
2022-08-07T00:21:55.289Z,75.23
2022-08-07T00:22:51.794Z,75.23
2022-08-07T00:23:45.102Z,75.37
2022-08-07T00:24:44.092Z,75.37
2022-08-07T00:25:45.817Z,75.27
2022-08-07T00:26:59.324Z,75.37
2022-08-07T00:27:53.675Z,75.47
2022-08-07T00:28:46.030Z,75.71
2022-08-07T00:29:45.032Z,76.01
2022-08-07T00:30:44.044Z,76.22
2022-08-07T00:31:44.007Z,76.32
2022-08-07T00:32:44.996Z,76.53
2022-08-07T00:33:47.433Z,76.53
2022-08-07T00:34:43.976Z,76.53
2022-08-07T00:35:49.705Z,76.53
2022-08-07T00:36:44.976Z,76.73
2022-08-07T00:37:47.951Z,76.73
2022-08-07T00:38:44.884Z,76.73
2022-08-07T00:39:45.053Z,76.73
2022-08-07T00:40:43.906Z,76.83
2022-08-07T00:41:45.335Z,76.83
2022-08-07T00:42:44.880Z,76.73
2022-08-07T00:43:59.053Z,76.53
2022-08-07T00:44:44.866Z,76.73
2022-08-07T00:45:46.493Z,76.73
2022-08-07T00:46:43.863Z,76.73
2022-08-07T00:48:10.402Z,76.73
2022-08-07T00:48:44.820Z,76.73
2022-08-07T00:50:21.325Z,76.53
2022-08-07T00:50:50.338Z,76.73
2022-08-07T00:51:57.435Z,76.73
2022-08-07T00:52:47.503Z,76.53
2022-08-07T00:53:50.108Z,76.62
2022-08-07T00:54:44.766Z,76.62
2022-08-07T00:56:00.360Z,76.53
2022-08-07T00:56:44.733Z,76.53
2022-08-07T00:57:44.397Z,76.53
2022-08-07T00:58:46.841Z,76.53
2022-08-07T00:59:43.712Z,76.32
2022-08-07T01:00:53.514Z,76.32
2022-08-07T01:01:44.933Z,76.32
2022-08-07T01:02:43.671Z,76.22
2022-08-07T01:03:55.981Z,76.42
2022-08-07T01:04:44.667Z,76.35
2022-08-07T01:05:43.641Z,76.66
2022-08-07T01:06:44.622Z,76.87
2022-08-07T01:07:43.619Z,76.76
2022-08-07T01:08:53.350Z,76.87
2022-08-07T01:10:04.586Z,76.76
2022-08-07T01:10:47.655Z,76.87
2022-08-07T01:12:08.932Z,77.07
2022-08-07T01:12:53.389Z,77.07
2022-08-07T01:13:55.526Z,77.17
2022-08-07T01:14:45.047Z,77.17
2022-08-07T01:16:05.191Z,77.27
2022-08-07T01:16:46.956Z,77.37
2022-08-07T01:17:43.500Z,77.27
2022-08-07T01:18:44.446Z,77.27
2022-08-07T01:19:52.332Z,77.27
2022-08-07T01:20:44.482Z,77.17
2022-08-07T01:21:44.463Z,77.27
2022-08-07T01:22:46.791Z,77.27
2022-08-07T01:23:46.640Z,77.27
2022-08-07T01:24:43.435Z,77.27
2022-08-07T01:25:55.121Z,77.07
2022-08-07T01:26:44.417Z,77.27
2022-08-07T01:27:51.491Z,77.51
2022-08-07T01:28:45.992Z,77.72
2022-08-07T01:29:43.374Z,77.82
2022-08-07T01:30:43.386Z,77.82
2022-08-07T01:31:48.106Z,77.82
2022-08-07T01:32:44.351Z,77.62
2022-08-07T01:33:55.858Z,77.51
2022-08-07T01:34:44.318Z,77.41
2022-08-07T01:35:54.551Z,77.31
2022-08-07T01:36:44.421Z,77.31
2022-08-07T01:37:44.289Z,77.21
2022-08-07T01:38:43.281Z,77.21
2022-08-07T01:39:46.530Z,77.31
2022-08-07T01:40:43.239Z,77.31
2022-08-07T01:42:07.245Z,77.41
2022-08-07T01:42:58.451Z,77.45
2022-08-07T01:43:44.210Z,77.45
2022-08-07T01:44:43.211Z,77.34
2022-08-07T01:45:43.196Z,77.34
2022-08-07T01:46:43.199Z,77.34
2022-08-07T01:48:29.797Z,77.45
2022-08-07T01:48:46.812Z,77.65
2022-08-07T01:49:43.157Z,77.55
2022-08-07T01:50:43.438Z,77.75
2022-08-07T01:52:02.177Z,77.96
2022-08-07T01:52:49.738Z,78.06
2022-08-07T01:54:12.577Z,78.16
2022-08-07T01:54:44.105Z,78.20
2022-08-07T01:55:43.082Z,78.30
2022-08-07T01:56:43.149Z,78.41
2022-08-07T01:58:05.691Z,78.50
2022-08-07T01:58:45.254Z,78.50
2022-08-07T01:59:43.776Z,78.50
2022-08-07T02:00:48.924Z,78.41
2022-08-07T02:02:02.199Z,78.30
2022-08-07T02:03:15.993Z,78.20
2022-08-07T02:03:50.368Z,78.20
2022-08-07T02:04:56.263Z,78.30
2022-08-07T02:05:59.304Z,78.27
2022-08-07T02:06:43.968Z,78.41
2022-08-07T02:07:50.248Z,78.27
2022-08-07T02:08:43.954Z,78.16
2022-08-07T02:09:53.017Z,78.16
2022-08-07T02:10:43.938Z,78.09
2022-08-07T02:12:03.360Z,78.20
2022-08-07T02:12:46.577Z,78.50
2022-08-07T02:13:57.458Z,78.41
2022-08-07T02:14:43.876Z,78.41
2022-08-07T02:15:42.892Z,78.50
2022-08-07T02:16:42.850Z,78.50
2022-08-07T02:17:49.351Z,78.50
2022-08-07T02:18:46.879Z,78.30
2022-08-07T02:20:04.238Z,78.30
2022-08-07T02:20:48.698Z,78.41
2022-08-07T02:21:56.578Z,78.50
2022-08-07T02:22:43.989Z,78.50
2022-08-07T02:23:42.773Z,78.50
2022-08-07T02:24:44.642Z,78.41
2022-08-07T02:26:31.176Z,78.41
2022-08-07T02:26:43.734Z,78.30
2022-08-07T02:27:42.745Z,78.20
2022-08-07T02:28:43.733Z,78.41
2022-08-07T02:29:43.531Z,78.50
2022-08-07T02:30:43.710Z,78.50
2022-08-07T02:31:42.686Z,78.50
2022-08-07T02:33:00.730Z,78.64
2022-08-07T02:34:02.832Z,78.85
2022-08-07T02:34:48.998Z,79.05
2022-08-07T02:36:27.071Z,79.05
2022-08-07T02:36:43.675Z,79.16
2022-08-07T02:37:44.121Z,78.95
2022-08-07T02:38:50.894Z,79.16
2022-08-07T02:40:11.809Z,79.16
2022-08-07T02:40:43.623Z,79.16
2022-08-07T02:41:47.282Z,79.25
2022-08-07T02:42:43.587Z,79.16
2022-08-07T02:43:43.244Z,78.95
2022-08-07T02:44:48.398Z,78.95
2022-08-07T02:45:58.360Z,78.95
2022-08-07T02:46:46.878Z,79.16
2022-08-07T02:47:45.492Z,79.19
2022-08-07T02:48:47.067Z,79.29
2022-08-07T02:49:56.400Z,79.39
2022-08-07T02:50:43.481Z,79.50
2022-08-07T02:51:51.832Z,79.50
2022-08-07T02:52:44.097Z,79.39
2022-08-07T02:53:42.446Z,79.60
2022-08-07T02:54:42.444Z,79.60
2022-08-07T02:56:03.730Z,79.64
2022-08-07T02:56:43.412Z,79.84
2022-08-07T02:57:42.383Z,80.05
2022-08-07T02:58:47.176Z,80.15
2022-08-07T02:59:43.398Z,80.15
2022-08-07T03:00:47.097Z,80.15
2022-08-07T03:01:42.459Z,80.15
2022-08-07T03:02:54.594Z,80.15
2022-08-07T03:03:50.350Z,80.25
2022-08-07T03:04:43.327Z,80.35
2022-08-07T03:05:42.326Z,80.25
2022-08-07T03:06:45.735Z,80.15
2022-08-07T03:08:05.188Z,80.05
2022-08-07T03:08:43.269Z,80.05
2022-08-07T03:09:45.463Z,79.94
2022-08-07T03:10:46.751Z,79.94
2022-08-07T03:11:52.249Z,79.84
2022-08-07T03:12:43.243Z,79.84
2022-08-07T03:13:49.697Z,79.94
2022-08-07T03:14:43.212Z,79.84
2022-08-07T03:15:55.662Z,79.74
2022-08-07T03:16:43.189Z,79.84
2022-08-07T03:17:53.530Z,79.84
2022-08-07T03:18:44.024Z,79.88
2022-08-07T03:19:42.159Z,79.88
2022-08-07T03:20:43.140Z,80.08
2022-08-07T03:21:50.627Z,80.08
2022-08-07T03:22:43.121Z,80.08
2022-08-07T03:24:19.559Z,80.29
2022-08-07T03:24:43.116Z,80.39
2022-08-07T03:25:42.082Z,80.39
2022-08-07T03:26:51.298Z,80.39
2022-08-07T03:27:59.221Z,80.49
2022-08-07T03:28:43.368Z,80.60
2022-08-07T03:29:46.111Z,80.69
2022-08-07T03:30:43.037Z,80.80
2022-08-07T03:31:43.361Z,80.69
2022-08-07T03:32:57.055Z,80.69
2022-08-07T03:33:43.005Z,80.69
2022-08-07T03:34:47.163Z,80.80
2022-08-07T03:35:50.073Z,80.69
2022-08-07T03:36:42.996Z,80.39
2022-08-07T03:37:46.114Z,80.39
2022-08-07T03:38:41.945Z,80.49
2022-08-07T03:39:46.007Z,80.49
2022-08-07T03:40:44.226Z,80.39
2022-08-07T03:41:47.527Z,80.39
2022-08-07T03:42:42.904Z,80.39
2022-08-07T03:43:43.997Z,80.39
2022-08-07T03:44:42.877Z,80.39
2022-08-07T03:45:43.619Z,80.49
2022-08-07T03:47:13.465Z,80.60
2022-08-07T03:47:47.658Z,80.69
2022-08-07T03:48:45.401Z,80.80
2022-08-07T03:49:51.954Z,80.80
2022-08-07T03:50:52.102Z,80.80
2022-08-07T03:51:47.136Z,80.69
2022-08-07T03:52:42.814Z,80.60
2022-08-07T03:54:05.414Z,80.49
2022-08-07T03:54:55.168Z,80.29
2022-08-07T03:55:58.109Z,80.19
2022-08-07T03:56:42.751Z,80.29
2022-08-07T03:59:07.063Z,80.39
2022-08-07T03:59:08.219Z,80.39
2022-08-07T03:59:46.791Z,80.49
2022-08-07T04:00:46.493Z,80.49
2022-08-07T04:01:43.058Z,80.39
2022-08-07T04:02:41.703Z,80.29
2022-08-07T04:03:53.313Z,80.19
2022-08-07T04:04:42.673Z,80.19
2022-08-07T04:05:42.507Z,79.98
2022-08-07T04:06:41.658Z,79.88
2022-08-07T04:07:42.426Z,79.88
2022-08-07T04:08:41.625Z,79.78
2022-08-07T04:09:45.236Z,79.78
2022-08-07T04:10:42.617Z,79.78
2022-08-07T04:12:21.312Z,79.78
2022-08-07T04:12:42.588Z,79.68
2022-08-07T04:14:10.705Z,79.68
2022-08-07T04:14:43.664Z,79.68
2022-08-07T04:15:41.550Z,79.57
2022-08-07T04:16:43.085Z,79.47
2022-08-07T04:18:30.964Z,79.37
2022-08-07T04:18:59.338Z,79.47
2022-08-07T04:19:52.385Z,79.68
2022-08-07T04:20:54.313Z,79.68
2022-08-07T04:21:59.742Z,79.68
2022-08-07T04:22:53.776Z,79.68
2022-08-07T04:23:44.004Z,79.78
2022-08-07T04:24:42.460Z,79.88
2022-08-07T04:25:41.431Z,79.78
2022-08-07T04:26:43.615Z,79.68
2022-08-07T04:27:44.179Z,79.57
2022-08-07T04:28:41.411Z,79.47
2022-08-07T04:30:02.409Z,79.47
2022-08-07T04:30:55.390Z,79.57
2022-08-07T04:32:03.085Z,79.43
2022-08-07T04:32:44.623Z,79.37
2022-08-07T04:33:42.341Z,79.13
2022-08-07T04:34:41.346Z,79.02
2022-08-07T04:35:41.341Z,78.72
2022-08-07T04:36:41.326Z,78.17
2022-08-07T04:38:02.994Z,77.97
2022-08-07T04:38:42.331Z,77.66
2022-08-07T04:39:41.339Z,76.56
2022-08-07T04:40:43.951Z,74.08
2022-08-07T04:41:42.283Z,70.48
2022-08-07T04:42:42.250Z,67.00
2022-08-07T04:44:13.036Z,64.58
2022-08-07T04:44:54.668Z,62.38
2022-08-07T04:46:00.422Z,60.48
2022-08-07T04:46:59.498Z,58.93
2022-08-07T04:48:00.441Z,58.20
2022-08-07T04:48:44.723Z,57.56
2022-08-07T04:49:41.168Z,57.16
2022-08-07T04:50:41.174Z,57.26
2022-08-07T04:51:41.158Z,57.79
2022-08-07T04:52:50.918Z,58.53
2022-08-07T04:54:05.382Z,59.80
2022-08-07T04:54:42.131Z,61.17
2022-08-07T04:58:10.440Z,64.46
2022-08-07T04:58:23.764Z,62.65
2022-08-07T04:58:27.969Z,66.15
2022-08-07T04:59:17.095Z,67.50
2022-08-07T05:00:10.857Z,68.55
2022-08-07T05:00:43.136Z,69.40
2022-08-07T05:01:41.087Z,70.24
2022-08-07T05:02:43.458Z,70.95
2022-08-07T05:04:07.112Z,71.50
2022-08-07T05:04:47.279Z,71.91
2022-08-07T05:05:52.077Z,72.01
2022-08-07T05:06:43.581Z,72.21
2022-08-07T05:07:48.172Z,72.41
2022-08-07T05:08:59.390Z,72.55
2022-08-07T05:09:46.180Z,72.75
2022-08-07T05:10:41.959Z,73.16
2022-08-07T05:11:58.552Z,73.16
2022-08-07T05:12:51.395Z,73.06
2022-08-07T05:14:52.748Z,73.13
2022-08-07T05:14:53.338Z,73.16
2022-08-07T05:15:42.837Z,73.02
2022-08-07T05:16:44.036Z,73.33
2022-08-07T05:17:52.204Z,73.23
2022-08-07T05:18:42.831Z,73.33
2022-08-07T05:19:44.833Z,73.43
2022-08-07T05:20:40.844Z,73.23
2022-08-07T05:22:00.713Z,73.26
2022-08-07T05:22:41.831Z,73.47
2022-08-07T05:23:40.822Z,73.67
2022-08-07T05:24:41.028Z,74.11
2022-08-07T05:26:12.996Z,74.32
2022-08-07T05:26:41.770Z,74.52
2022-08-07T05:28:16.364Z,74.93
2022-08-07T05:28:41.765Z,75.44
2022-08-07T05:29:50.902Z,75.64
2022-08-07T05:30:41.719Z,76.05
2022-08-07T05:31:40.754Z,76.05
2022-08-07T05:32:43.669Z,75.64
2022-08-07T05:33:40.699Z,75.51
2022-08-07T05:34:41.819Z,75.30
2022-08-07T05:35:41.720Z,75.10
2022-08-07T05:36:40.738Z,75.10
2022-08-07T05:37:42.405Z,75.16
2022-08-07T05:39:00.420Z,75.16
2022-08-07T05:40:14.055Z,75.06
2022-08-07T05:40:41.862Z,74.86
2022-08-07T05:42:00.319Z,74.86
2022-08-07T05:42:42.235Z,74.72
2022-08-07T05:43:49.509Z,74.62
2022-08-07T05:44:46.724Z,74.52
2022-08-07T05:45:46.512Z,74.55
2022-08-07T05:46:41.556Z,75.06
2022-08-07T05:48:02.158Z,75.57
2022-08-07T05:48:58.139Z,75.37
2022-08-07T05:49:41.546Z,75.27
2022-08-07T05:50:43.154Z,75.27
2022-08-07T05:51:40.623Z,74.96
2022-08-07T05:52:40.477Z,75.06
2022-08-07T05:54:14.151Z,74.76
2022-08-07T05:54:44.578Z,75.02
2022-08-07T05:56:02.403Z,75.13
2022-08-07T05:56:41.442Z,74.93
2022-08-07T05:57:42.393Z,75.02
2022-08-07T05:58:40.416Z,74.82
2022-08-07T05:59:58.007Z,74.69
2022-08-07T06:00:41.392Z,74.79
2022-08-07T06:01:40.448Z,74.69
2022-08-07T06:02:40.398Z,73.97
2022-08-07T06:03:56.585Z,73.77
2022-08-07T06:04:41.353Z,73.77
2022-08-07T06:05:40.681Z,74.48
2022-08-07T06:06:46.385Z,74.82
2022-08-07T06:08:14.683Z,75.02
2022-08-07T06:08:42.624Z,75.43
2022-08-07T06:10:03.774Z,75.64
2022-08-07T06:10:42.524Z,75.54
2022-08-07T06:11:40.297Z,75.40
2022-08-07T06:12:40.262Z,75.09
2022-08-07T06:14:11.731Z,74.79
2022-08-07T06:14:41.222Z,74.89
2022-08-07T06:15:42.772Z,74.58
2022-08-07T06:16:40.220Z,74.15
2022-08-07T06:17:41.318Z,74.85
2022-08-07T06:18:41.197Z,74.96
2022-08-07T06:19:57.745Z,74.65
2022-08-07T06:20:50.339Z,74.11
2022-08-07T06:22:14.680Z,73.91
2022-08-07T06:22:41.171Z,73.97
2022-08-07T06:24:38.365Z,73.16
2022-08-07T06:24:53.260Z,73.36
2022-08-07T06:25:41.113Z,73.46
2022-08-07T06:26:41.094Z,73.16
2022-08-07T06:27:44.415Z,73.57
2022-08-07T06:28:41.071Z,73.46
2022-08-07T06:29:40.075Z,73.97
2022-08-07T06:30:45.407Z,74.18
2022-08-07T06:31:49.685Z,73.77
2022-08-07T06:32:41.058Z,73.33
2022-08-07T06:33:40.016Z,73.33
2022-08-07T06:34:40.729Z,73.09
2022-08-07T06:35:47.555Z,72.48
2022-08-07T06:36:40.993Z,72.17
2022-08-07T06:37:43.829Z,72.14
2022-08-07T06:38:58.778Z,72.04
2022-08-07T06:40:16.978Z,71.94
2022-08-07T06:40:46.061Z,71.44
2022-08-07T06:42:00.537Z,71.03
2022-08-07T06:42:40.950Z,70.69
2022-08-07T06:43:46.270Z,70.89
2022-08-07T06:44:41.056Z,71.00
2022-08-07T06:45:39.906Z,70.69
2022-08-07T06:46:40.038Z,70.79
2022-08-07T06:47:57.420Z,70.59
2022-08-07T06:48:42.173Z,70.18
2022-08-07T06:49:50.821Z,70.28
2022-08-07T06:50:43.286Z,70.25
2022-08-07T06:51:49.565Z,70.15
2022-08-07T06:52:40.836Z,70.48
2022-08-07T06:55:27.860Z,71.00
2022-08-07T06:55:33.713Z,71.30
2022-08-07T06:55:53.465Z,70.69
2022-08-07T06:56:49.617Z,70.18
2022-08-07T06:57:47.218Z,70.05
2022-08-07T06:58:40.757Z,70.15
2022-08-07T07:00:13.059Z,70.25
2022-08-07T07:00:42.345Z,70.45
2022-08-07T07:01:42.211Z,70.35
2022-08-07T07:02:53.376Z,70.05
2022-08-07T07:03:49.996Z,69.81
2022-08-07T07:04:43.482Z,69.71
2022-08-07T07:06:05.515Z,70.72
2022-08-07T07:07:00.779Z,69.61
2022-08-07T07:07:59.623Z,69.51
2022-08-07T07:08:46.589Z,69.92
2022-08-07T07:09:40.656Z,70.01
2022-08-07T07:10:39.627Z,70.21
2022-08-07T07:12:08.692Z,69.92
2022-08-07T07:12:48.430Z,69.51
2022-08-07T07:13:58.781Z,69.37
2022-08-07T07:14:40.624Z,69.27
2022-08-07T07:15:39.560Z,69.07
2022-08-07T07:16:50.602Z,69.17
2022-08-07T07:17:45.422Z,69.04
2022-08-07T07:18:48.155Z,69.04
2022-08-07T07:19:57.392Z,69.14
2022-08-07T07:20:40.530Z,69.44
2022-08-07T07:21:40.472Z,69.31
2022-08-07T07:24:07.062Z,68.80
2022-08-07T07:24:08.485Z,68.40
2022-08-07T07:24:42.948Z,68.60
2022-08-07T07:26:32.529Z,68.80
2022-08-07T07:26:40.544Z,68.47
2022-08-07T07:27:55.610Z,68.77
2022-08-07T07:28:48.417Z,68.47
2022-08-07T07:30:08.852Z,67.86
2022-08-07T07:30:40.537Z,67.22
2022-08-07T07:31:44.174Z,66.92
2022-08-07T07:32:40.458Z,66.61
2022-08-07T07:33:39.389Z,66.61
2022-08-07T07:34:39.656Z,66.52
2022-08-07T07:35:51.876Z,66.41
2022-08-07T07:36:40.554Z,66.28
2022-08-07T07:37:49.700Z,66.18
2022-08-07T07:38:40.301Z,66.08
2022-08-07T07:39:52.314Z,65.78
2022-08-07T07:40:40.394Z,64.67
2022-08-07T07:42:02.225Z,64.06
2022-08-07T07:42:40.275Z,64.16
2022-08-07T07:43:47.847Z,63.76
2022-08-07T07:44:42.212Z,63.82
2022-08-07T07:46:38.505Z,62.92
2022-08-07T07:46:54.651Z,63.12
2022-08-07T07:47:42.715Z,63.52
2022-08-07T07:48:40.221Z,62.48
2022-08-07T07:50:35.831Z,62.18
2022-08-07T07:50:40.443Z,62.08
2022-08-07T07:51:58.550Z,61.85
2022-08-07T07:52:40.154Z,61.44
2022-08-07T07:53:48.162Z,61.55
2022-08-07T07:54:40.182Z,61.65
2022-08-07T07:55:45.518Z,61.72
2022-08-07T07:56:40.114Z,62.73
2022-08-07T07:57:53.439Z,62.63
2022-08-07T07:58:40.895Z,63.13
2022-08-07T07:59:52.080Z,63.23
2022-08-07T08:00:40.056Z,62.12
2022-08-07T08:02:03.374Z,62.52
2022-08-07T08:02:49.270Z,61.59
2022-08-07T08:04:09.772Z,61.89
2022-08-07T08:04:40.043Z,61.99
2022-08-07T08:05:50.532Z,61.49
2022-08-07T08:06:39.995Z,61.46
2022-08-07T08:07:42.341Z,61.05
2022-08-07T08:08:41.905Z,60.85
2022-08-07T08:09:52.194Z,60.96
2022-08-07T08:10:39.969Z,62.06
2022-08-07T08:11:47.191Z,61.86
2022-08-07T08:12:58.835Z,60.72
2022-08-07T08:13:52.872Z,59.62
2022-08-07T08:14:39.954Z,59.22
2022-08-07T08:15:57.477Z,59.42
2022-08-07T08:16:39.881Z,60.12
2022-08-07T08:17:58.243Z,59.89
2022-08-07T08:18:40.052Z,58.98
2022-08-07T08:20:19.750Z,58.98
2022-08-07T08:20:39.843Z,58.98
2022-08-07T08:22:00.679Z,58.98
2022-08-07T08:22:56.013Z,59.59
2022-08-07T08:23:39.839Z,58.55
2022-08-07T08:24:45.524Z,57.24
2022-08-07T08:25:42.871Z,57.75
2022-08-07T08:26:39.787Z,57.04
2022-08-07T08:27:38.780Z,57.24
2022-08-07T08:28:44.945Z,57.12
2022-08-07T08:29:55.932Z,57.52
2022-08-07T08:30:42.829Z,56.92
2022-08-07T08:32:10.258Z,57.32
2022-08-07T08:32:41.236Z,57.22
2022-08-07T08:33:38.727Z,55.11
2022-08-07T08:34:38.756Z,56.01
2022-08-07T08:35:39.575Z,56.41
2022-08-07T08:36:39.665Z,56.49
2022-08-07T08:38:01.311Z,56.19
2022-08-07T08:38:41.110Z,56.19
2022-08-07T08:39:39.417Z,56.09
2022-08-07T08:40:39.660Z,55.96
2022-08-07T08:41:58.533Z,56.56
2022-08-07T08:42:40.306Z,55.16
2022-08-07T08:43:42.463Z,54.45
2022-08-07T08:44:44.501Z,54.65
2022-08-07T08:45:58.424Z,53.65
2022-08-07T08:46:40.529Z,51.94
2022-08-07T08:47:51.814Z,52.82
2022-08-07T08:48:39.533Z,52.51
2022-08-07T08:49:57.202Z,52.42
2022-08-07T08:50:40.376Z,52.72
2022-08-07T08:52:01.046Z,53.52
2022-08-07T08:52:40.987Z,54.02
2022-08-07T08:53:39.507Z,53.70
2022-08-07T08:54:38.485Z,52.89
2022-08-07T08:55:54.436Z,51.89
2022-08-07T08:56:39.448Z,51.99
2022-08-07T08:57:39.448Z,52.37
2022-08-07T08:58:38.450Z,52.19
2022-08-07T08:59:41.787Z,52.89
2022-08-07T09:00:42.595Z,52.49
2022-08-07T09:01:40.158Z,51.87
2022-08-07T09:02:38.537Z,52.37
2022-08-07T09:03:49.729Z,52.26
2022-08-07T09:04:39.363Z,52.07
2022-08-07T09:05:38.377Z,51.17
2022-08-07T09:06:38.382Z,50.84
2022-08-07T09:07:45.961Z,50.63
2022-08-07T09:08:39.429Z,50.34
2022-08-07T09:09:38.315Z,50.54
2022-08-07T09:10:38.316Z,50.51
2022-08-07T09:11:43.522Z,50.42
2022-08-07T09:12:39.293Z,50.42
2022-08-07T09:13:38.397Z,51.21
2022-08-07T09:14:38.261Z,51.12
2022-08-07T09:16:22.377Z,51.01
2022-08-07T09:16:39.268Z,50.79
2022-08-07T09:17:59.606Z,50.89
2022-08-07T09:18:39.217Z,50.09
2022-08-07T09:19:51.798Z,50.57
2022-08-07T09:20:39.538Z,50.87
2022-08-07T09:22:22.935Z,49.76
2022-08-07T09:24:31.903Z,49.14
2022-08-07T09:24:32.306Z,49.04
2022-08-07T09:24:58.879Z,47.54
2022-08-07T09:25:39.164Z,47.24
2022-08-07T09:26:38.130Z,48.14
2022-08-07T09:27:38.363Z,48.04
2022-08-07T09:30:02.249Z,47.84
2022-08-07T09:30:03.416Z,45.42
2022-08-07T09:30:39.114Z,45.51
2022-08-07T09:31:38.782Z,45.62
2022-08-07T09:32:38.062Z,44.79
2022-08-07T09:33:52.603Z,44.89
2022-08-07T09:34:39.034Z,45.29
2022-08-07T09:36:03.504Z,44.39
2022-08-07T09:36:43.276Z,43.40
2022-08-07T09:37:48.173Z,42.79
2022-08-07T09:38:40.946Z,44.09
2022-08-07T09:39:55.488Z,43.79
2022-08-07T09:40:40.485Z,43.12
2022-08-07T09:41:43.545Z,44.32
2022-08-07T09:42:39.751Z,44.82
2022-08-07T09:44:03.455Z,45.74
2022-08-07T09:45:03.398Z,45.64
2022-08-07T09:47:27.511Z,45.74
2022-08-07T09:47:49.390Z,45.43
2022-08-07T09:47:59.463Z,44.92
2022-08-07T09:48:55.866Z,44.42
2022-08-07T09:50:02.724Z,44.62
2022-08-07T09:50:40.066Z,45.20
2022-08-07T09:52:16.587Z,45.29
2022-08-07T09:52:38.850Z,44.57
2022-08-07T09:53:41.430Z,44.27
2022-08-07T09:54:38.817Z,43.98
2022-08-07T09:56:03.326Z,43.65
2022-08-07T09:56:39.385Z,43.75
2022-08-07T09:57:37.797Z,43.63
2022-08-07T09:58:38.796Z,42.83
2022-08-07T09:59:46.511Z,42.83
2022-08-07T10:00:38.757Z,42.54
2022-08-07T10:01:52.088Z,42.63
2022-08-07T10:02:39.766Z,42.43
2022-08-07T10:04:05.809Z,42.33
2022-08-07T10:04:45.934Z,42.15
2022-08-07T10:05:59.822Z,41.55
2022-08-07T10:06:39.634Z,41.27
2022-08-07T10:07:52.311Z,41.88
2022-08-07T10:08:38.669Z,41.99
2022-08-07T10:09:42.568Z,43.09
2022-08-07T10:11:07.647Z,43.77
2022-08-07T10:12:01.722Z,43.18
2022-08-07T10:12:39.649Z,42.87
2022-08-07T10:14:00.355Z,41.75
2022-08-07T10:14:38.697Z,41.85
2022-08-07T10:15:44.398Z,41.05
2022-08-07T10:16:38.884Z,41.36
2022-08-07T10:18:00.844Z,41.05
2022-08-07T10:18:38.680Z,41.05
2022-08-07T10:19:38.694Z,40.97
2022-08-07T10:20:37.535Z,41.47
2022-08-07T10:22:12.157Z,41.25
2022-08-07T10:22:39.472Z,41.25
2022-08-07T10:24:06.812Z,41.25
2022-08-07T10:24:39.810Z,42.05
2022-08-07T10:25:42.201Z,41.93
2022-08-07T10:26:38.550Z,42.13
2022-08-07T10:27:46.440Z,42.43
2022-08-07T10:28:39.446Z,42.13
2022-08-07T10:29:43.219Z,41.61
2022-08-07T10:30:38.430Z,40.23
2022-08-07T10:31:38.657Z,40.12
2022-08-07T10:32:52.342Z,39.82
2022-08-07T10:34:06.060Z,39.32
2022-08-07T10:34:38.391Z,40.32
2022-08-07T10:35:56.745Z,40.72
2022-08-07T10:36:38.365Z,39.90
2022-08-07T10:38:00.527Z,40.20
2022-08-07T10:38:48.362Z,39.10
2022-08-07T10:39:41.417Z,39.60
2022-08-07T10:40:37.333Z,38.80
2022-08-07T10:41:52.247Z,39.00
2022-08-07T10:42:38.339Z,38.70
2022-08-07T10:43:38.263Z,39.00
2022-08-07T10:44:38.506Z,39.10
2022-08-07T10:45:57.504Z,38.20
2022-08-07T10:46:38.255Z,38.31
2022-08-07T10:47:53.122Z,38.20
2022-08-07T10:48:39.214Z,39.30
2022-08-07T10:49:49.772Z,39.40
2022-08-07T10:50:38.236Z,37.98
2022-08-07T10:52:01.410Z,38.48
2022-08-07T10:52:40.173Z,38.39
2022-08-07T10:53:44.231Z,38.59
2022-08-07T10:54:38.170Z,38.29
2022-08-07T10:55:38.644Z,37.70
2022-08-07T10:56:38.111Z,38.70
2022-08-07T10:57:37.354Z,39.20
2022-08-07T10:58:40.633Z,39.40
2022-08-07T10:59:37.605Z,38.31
2022-08-07T11:00:42.874Z,38.60
2022-08-07T11:01:51.133Z,38.52
2022-08-07T11:02:38.252Z,38.42
2022-08-07T11:03:37.408Z,38.62
2022-08-07T11:04:38.155Z,39.00
2022-08-07T11:05:51.006Z,37.81
2022-08-07T11:06:38.050Z,38.50
2022-08-07T11:07:59.704Z,37.12
2022-08-07T11:08:38.988Z,37.32
2022-08-07T11:10:10.281Z,37.54
2022-08-07T11:10:38.000Z,37.64
2022-08-07T11:11:38.954Z,38.44
2022-08-07T11:12:36.967Z,38.24
2022-08-07T11:14:44.812Z,37.82
2022-08-07T11:14:45.607Z,38.52
2022-08-07T11:15:37.922Z,38.12
2022-08-07T11:16:36.922Z,36.93
2022-08-07T11:17:45.166Z,36.84
2022-08-07T11:18:37.909Z,37.14
2022-08-07T11:19:36.901Z,37.34
2022-08-07T11:20:37.848Z,38.24
2022-08-07T11:21:42.857Z,37.42
2022-08-07T11:22:45.900Z,37.23
2022-08-07T11:23:38.566Z,37.12
2022-08-07T11:24:36.928Z,37.62
2022-08-07T11:25:47.942Z,38.22
2022-08-07T11:26:38.590Z,38.00
2022-08-07T11:28:03.026Z,38.20
2022-08-07T11:28:37.787Z,38.00
2022-08-07T11:29:41.982Z,38.10
2022-08-07T11:30:41.439Z,38.50
2022-08-07T11:31:36.759Z,38.20
2022-08-07T11:32:36.779Z,38.10
2022-08-07T11:33:53.809Z,37.52
2022-08-07T11:34:37.754Z,37.62
2022-08-07T11:35:36.738Z,37.72
2022-08-07T11:36:37.696Z,37.62
2022-08-07T11:37:38.424Z,38.00
2022-08-07T11:38:37.677Z,37.81
2022-08-07T11:39:39.641Z,38.10
2022-08-07T11:40:37.684Z,38.00
2022-08-07T11:42:00.158Z,37.38
2022-08-07T11:42:37.648Z,37.59
2022-08-07T11:43:54.350Z,37.88
2022-08-07T11:44:37.631Z,37.08
2022-08-07T11:45:36.656Z,37.10
2022-08-07T11:46:38.102Z,37.30
2022-08-07T11:47:39.114Z,37.60
2022-08-07T11:48:37.679Z,37.81
2022-08-07T11:50:25.426Z,37.98
2022-08-07T11:50:44.565Z,38.09
2022-08-07T11:51:44.881Z,38.39
2022-08-07T11:52:37.917Z,38.48
2022-08-07T11:53:36.527Z,37.88
2022-08-07T11:54:36.610Z,38.18
2022-08-07T11:56:09.136Z,39.28
2022-08-07T11:56:37.507Z,38.89
2022-08-07T11:58:00.591Z,38.37
2022-08-07T11:58:38.284Z,37.97
2022-08-07T12:00:10.988Z,38.18
2022-08-07T12:00:38.458Z,38.76
2022-08-07T12:01:59.571Z,38.59
2022-08-07T12:02:38.467Z,38.37
2022-08-07T12:03:42.217Z,38.17
2022-08-07T12:04:37.404Z,38.37
2022-08-07T12:05:47.726Z,37.87
2022-08-07T12:06:40.215Z,37.87
2022-08-07T12:07:38.919Z,37.97
2022-08-07T12:08:37.337Z,38.07
2022-08-07T12:09:36.442Z,37.07
2022-08-07T12:10:36.346Z,37.77
2022-08-07T12:11:43.359Z,37.77
2022-08-07T12:12:38.259Z,38.17
2022-08-07T12:13:37.914Z,37.67
2022-08-07T12:14:37.299Z,37.87
2022-08-07T12:16:05.972Z,38.17
2022-08-07T12:16:37.343Z,38.15
2022-08-07T12:17:36.821Z,38.45
2022-08-07T12:18:36.311Z,37.45
2022-08-07T12:19:56.304Z,37.43
2022-08-07T12:20:37.215Z,37.34
2022-08-07T12:22:36.679Z,37.05
2022-08-07T12:22:47.258Z,37.53
2022-08-07T12:24:05.311Z,37.23
2022-08-07T12:24:40.204Z,36.95
2022-08-07T12:26:03.448Z,37.43
2022-08-07T12:26:42.012Z,37.23
2022-08-07T12:28:09.718Z,37.34
2022-08-07T12:28:37.223Z,36.65
2022-08-07T12:29:40.345Z,36.85
2022-08-07T12:30:37.069Z,37.65
2022-08-07T12:31:52.486Z,36.46
2022-08-07T12:32:37.110Z,36.55
2022-08-07T12:33:56.077Z,36.65
2022-08-07T12:34:37.064Z,36.85
2022-08-07T12:35:36.259Z,37.43
2022-08-07T12:36:36.054Z,37.83
2022-08-07T12:38:09.117Z,38.43
2022-08-07T12:38:42.759Z,38.63
2022-08-07T12:39:41.932Z,38.33
2022-08-07T12:40:47.908Z,37.71
2022-08-07T12:41:49.489Z,37.21
2022-08-07T12:42:36.976Z,37.21
2022-08-07T12:44:02.450Z,37.00
2022-08-07T12:44:36.984Z,36.70
2022-08-07T12:45:35.939Z,36.50
2022-08-07T12:46:35.937Z,36.30
2022-08-07T12:47:37.478Z,36.78
2022-08-07T12:48:48.382Z,35.71
2022-08-07T12:49:39.589Z,35.61
2022-08-07T12:50:40.127Z,35.72
2022-08-07T12:51:50.960Z,35.92
2022-08-07T12:52:36.902Z,36.92